Time;durP1;ratioP1;P1;durP2;ratioP2;P2;SDS_P1;SDS_P2;PMS_P1;PMS_P2;Temp;Humidity;BMP_temperature;BMP_pressure;BME280_temperature;BME280_humidity;BME280_pressure;Samples;Min_cycle;Max_cycle;Signal;HPM_P1;HPM_P2
2022/03/03 00:01:23;;;;;;;17.87;16.97;;;;;;;-141.02;100.00;55844.97;5136442;27;20235;-70
2022/03/03 00:03:50;;;;;;;17.00;16.20;;;;;;;-141.02;100.00;55844.97;5136408;27;20220;-70
2022/03/03 00:06:17;;;;;;;18.63;17.63;;;;;;;-141.02;100.00;55844.97;5136329;27;20220;-70
2022/03/03 00:08:44;;;;;;;18.77;17.50;;;;;;;-141.02;100.00;55844.97;5136193;27;20311;-70
2022/03/03 00:11:11;;;;;;;17.33;16.53;;;;;;;-141.02;100.00;55844.97;5136198;27;20276;-70
2022/03/03 00:13:39;;;;;;;19.90;18.50;;;;;;;-141.02;100.00;55844.97;5135897;27;20197;-70
2022/03/03 00:16:08;;;;;;;18.93;17.67;;;;;;;-141.02;100.00;55844.97;5135826;27;20232;-70
2022/03/03 00:18:35;;;;;;;17.07;16.27;;;;;;;-141.02;100.00;55844.97;5135801;27;20597;-70
2022/03/03 00:21:02;;;;;;;17.30;16.50;;;;;;;-141.02;100.00;55844.97;5135746;27;20273;-69
2022/03/03 00:23:29;;;;;;;20.90;19.57;;;;;;;-141.02;100.00;55844.97;5135650;27;20641;-70
2022/03/03 00:25:56;;;;;;;19.30;17.93;;;;;;;-141.02;100.00;55844.97;5135616;27;20572;-70
2022/03/03 00:28:23;;;;;;;20.23;19.13;;;;;;;-141.02;100.00;55844.97;5135414;27;20704;-70
2022/03/03 00:30:51;;;;;;;23.67;19.20;;;;;;;-141.02;100.00;55844.97;5134944;27;20196;-70
2022/03/03 00:33:18;;;;;;;16.97;16.17;;;;;;;-141.02;100.00;55844.97;5135558;27;20192;-70
2022/03/03 00:35:45;;;;;;;18.43;17.53;;;;;;;-141.02;100.00;55844.97;5135443;27;20239;-69
2022/03/03 00:38:13;;;;;;;18.30;17.40;;;;;;;-141.02;100.00;55844.97;5135803;27;20253;-70
2022/03/03 00:40:40;;;;;;;16.73;16.00;;;;;;;-141.02;100.00;55844.97;5135218;27;20301;-71
2022/03/03 00:43:08;;;;;;;18.73;17.63;;;;;;;-141.02;100.00;55844.97;5135643;27;20224;-70
2022/03/03 00:45:35;;;;;;;16.47;15.77;;;;;;;-141.02;100.00;55844.97;5135584;27;20196;-71
2022/03/03 00:48:04;;;;;;;20.00;18.67;;;;;;;-141.02;100.00;55844.97;5135186;27;20277;-70
2022/03/03 00:50:32;;;;;;;18.23;17.23;;;;;;;-141.02;100.00;55844.97;5135463;27;20283;-70
2022/03/03 00:53:00;;;;;;;18.13;17.23;;;;;;;-141.02;100.00;55844.97;5135422;27;20579;-70
2022/03/03 00:55:27;;;;;;;16.27;15.57;;;;;;;-141.02;100.00;55844.97;5135055;27;20743;-70
2022/03/03 00:57:54;;;;;;;17.57;16.67;;;;;;;-141.02;100.00;55844.97;5134974;27;20192;-70
2022/03/03 01:00:21;;;;;;;17.23;16.43;;;;;;;-141.02;100.00;55844.97;5135780;27;20206;-70
2022/03/03 01:02:48;;;;;;;20.40;18.87;;;;;;;-141.02;100.00;55844.97;5135244;27;20192;-70
2022/03/03 01:05:17;;;;;;;18.97;17.53;;;;;;;-141.02;100.00;55844.97;5134863;27;20188;-70
2022/03/03 01:07:45;;;;;;;20.13;19.00;;;;;;;-141.02;100.00;55844.97;5134766;27;20213;-70
2022/03/03 01:10:13;;;;;;;18.33;17.43;;;;;;;-141.02;100.00;55844.97;5135040;27;20232;-70
2022/03/03 01:12:40;;;;;;;18.03;17.13;;;;;;;-141.02;100.00;55844.97;5134702;27;20196;-70
2022/03/03 01:15:10;;;;;;;19.53;18.47;;;;;;;-141.02;100.00;55844.97;5134988;27;20224;-70
2022/03/03 01:17:37;;;;;;;17.90;17.00;;;;;;;-141.02;100.00;55844.97;5134959;27;20189;-68
2022/03/03 01:20:05;;;;;;;19.50;18.50;;;;;;;-141.02;100.00;55844.97;5134828;27;20196;-70
2022/03/03 01:22:33;;;;;;;16.73;15.93;;;;;;;-141.02;100.00;55844.97;5134794;27;20298;-70
2022/03/03 01:25:00;;;;;;;17.73;16.83;;;;;;;-141.02;100.00;55844.97;5134501;27;20231;-70
2022/03/03 01:27:28;;;;;;;19.00;17.07;;;;;;;-141.02;100.00;55844.97;5134419;27;20261;-71
2022/03/03 01:29:55;;;;;;;17.73;16.73;;;;;;;-141.02;100.00;55844.97;5134650;27;20224;-70
2022/03/03 01:32:22;;;;;;;23.77;22.37;;;;;;;-141.02;100.00;55844.97;5134299;27;20217;-70
2022/03/03 01:34:49;;;;;;;20.47;19.17;;;;;;;-141.02;100.00;55844.97;5134299;27;20192;-69
2022/03/03 01:37:16;;;;;;;25.27;22.27;;;;;;;-141.02;100.00;55844.97;5134616;27;20651;-70
2022/03/03 01:39:44;;;;;;;22.20;20.03;;;;;;;-141.02;100.00;55844.97;5134210;27;20228;-71
2022/03/03 01:42:14;;;;;;;17.47;16.57;;;;;;;-141.02;100.00;55844.97;5134309;27;20197;-71
2022/03/03 01:44:43;;;;;;;16.60;15.87;;;;;;;-141.02;100.00;55844.97;5134405;27;20220;-70
2022/03/03 01:47:18;;;;;;;18.87;17.80;;;;;;;-141.02;100.00;55844.97;5134349;27;20203;-71
2022/03/03 01:49:47;;;;;;;19.43;18.20;;;;;;;-141.02;100.00;55844.97;5134215;27;20216;-69
2022/03/03 01:52:15;;;;;;;18.20;17.20;;;;;;;-141.02;100.00;55844.97;5133917;27;20570;-70
2022/03/03 01:54:42;;;;;;;17.20;16.40;;;;;;;-141.02;100.00;55844.97;5134180;27;20224;-70
2022/03/03 01:57:11;;;;;;;18.40;17.50;;;;;;;-141.02;100.00;55844.97;5134141;27;20223;-70
2022/03/03 01:59:39;;;;;;;16.57;15.77;;;;;;;-141.02;100.00;55844.97;5134136;27;20333;-69
2022/03/03 02:02:08;;;;;;;20.43;18.93;;;;;;;-141.02;100.00;55844.97;5134069;27;20228;-70
2022/03/03 02:04:35;;;;;;;28.00;26.00;;;;;;;-141.02;100.00;55844.97;5133712;27;20658;-69
2022/03/03 02:07:02;;;;;;;30.23;19.63;;;;;;;-141.02;100.00;55844.97;5133946;27;20199;-70
2022/03/03 02:09:30;;;;;;;20.13;19.03;;;;;;;-141.02;100.00;55844.97;5133547;27;20654;-70
2022/03/03 02:11:57;;;;;;;18.70;17.60;;;;;;;-141.02;100.00;55844.97;5133570;27;20309;-70
2022/03/03 02:14:26;;;;;;;19.53;18.43;;;;;;;-141.02;100.00;55844.97;5133883;27;20193;-70
2022/03/03 02:16:53;;;;;;;20.60;19.23;;;;;;;-141.02;100.00;55844.97;5133880;27;20193;-70
2022/03/03 02:19:21;;;;;;;18.87;17.93;;;;;;;-141.02;100.00;55844.97;5133415;27;20589;-70
2022/03/03 02:21:52;;;;;;;21.10;18.87;;;;;;;-141.02;100.00;55844.97;5133412;27;20548;-70
2022/03/03 02:24:20;;;;;;;17.47;16.67;;;;;;;-141.02;100.00;55844.97;5133424;27;20185;-70
2022/03/03 02:26:47;;;;;;;16.50;15.73;;;;;;;-141.02;100.00;55844.97;5133420;27;20196;-70
2022/03/03 02:29:15;;;;;;;19.33;18.33;;;;;;;-141.02;100.00;55844.97;5133604;27;20256;-70
2022/03/03 02:31:44;;;;;;;18.17;17.17;;;;;;;-141.02;100.00;55844.97;5133599;27;20252;-70
2022/03/03 02:34:11;;;;;;;16.77;15.97;;;;;;;-141.02;100.00;55844.97;5133240;27;20283;-70
2022/03/03 02:36:38;;;;;;;18.03;17.13;;;;;;;-141.02;100.00;55844.97;5133987;27;20232;-68
2022/03/03 02:39:07;;;;;;;21.03;19.53;;;;;;;-141.02;100.00;55844.97;5133217;27;20232;-70
2022/03/03 02:41:34;;;;;;;18.00;17.20;;;;;;;-141.02;100.00;55844.97;5133145;27;20707;-70
2022/03/03 02:44:02;;;;;;;16.70;16.00;;;;;;;-141.02;100.00;55844.97;5133108;27;20196;-70
2022/03/03 02:46:30;;;;;;;19.97;18.30;;;;;;;-141.02;100.00;55844.97;5133076;27;20662;-71
2022/03/03 02:48:57;;;;;;;17.33;16.53;;;;;;;-141.02;100.00;55844.97;5133265;27;20228;-71
2022/03/03 02:51:24;;;;;;;17.60;16.50;;;;;;;-141.02;100.00;55844.97;5133363;27;20196;-70
2022/03/03 02:53:51;;;;;;;16.40;15.70;;;;;;;-141.02;100.00;55844.97;5132672;27;20196;-70
2022/03/03 02:56:20;;;;;;;21.37;19.80;;;;;;;-141.02;100.00;55844.97;5133073;28;20283;-70
2022/03/03 02:58:46;;;;;;;20.33;19.23;;;;;;;-141.02;100.00;55844.97;5133228;28;20227;-70
2022/03/03 03:01:13;;;;;;;18.60;17.60;;;;;;;-141.02;100.00;55844.97;5133203;28;20201;-70
2022/03/03 03:03:41;;;;;;;19.63;18.43;;;;;;;-141.02;100.00;55844.97;5133232;28;20294;-70
2022/03/03 03:06:08;;;;;;;17.93;16.97;;;;;;;-141.02;100.00;55844.97;5133176;28;20276;-70
2022/03/03 03:08:35;;;;;;;18.17;17.27;;;;;;;-141.02;100.00;55844.97;5132825;27;20227;-70
2022/03/03 03:11:02;;;;;;;20.30;19.07;;;;;;;-141.02;100.00;55844.97;5132818;28;20235;-71
2022/03/03 03:13:30;;;;;;;22.80;20.60;;;;;;;-141.02;100.00;55844.97;5132886;28;20199;-70
2022/03/03 03:15:57;;;;;;;17.00;16.30;;;;;;;-141.02;100.00;55844.97;5133106;28;20295;-69
2022/03/03 03:18:24;;;;;;;19.07;18.00;;;;;;;-141.02;100.00;55844.97;5133010;28;20234;-70
2022/03/03 03:20:53;;;;;;;18.60;17.47;;;;;;;-141.02;100.00;55844.97;5132753;28;20196;-69
2022/03/03 03:23:22;;;;;;;19.97;18.60;;;;;;;-141.02;100.00;55844.97;5132988;28;20284;-70
2022/03/03 03:25:49;;;;;;;17.00;16.20;;;;;;;-141.02;100.00;55844.97;5132998;28;20250;-69
2022/03/03 03:28:18;;;;;;;17.67;16.60;;;;;;;-141.02;100.00;55844.97;5132957;28;20634;-70
2022/03/03 03:30:46;;;;;;;19.10;17.97;;;;;;;-141.02;100.00;55844.97;5132549;28;20674;-69
2022/03/03 03:33:13;;;;;;;21.70;20.10;;;;;;;-141.02;100.00;55844.97;5132948;27;20612;-70
2022/03/03 03:35:40;;;;;;;17.97;16.93;;;;;;;-141.02;100.00;55844.97;5132558;28;20714;-70
2022/03/03 03:38:08;;;;;;;17.17;16.30;;;;;;;-141.02;100.00;55844.97;5132878;28;20193;-70
2022/03/03 03:40:35;;;;;;;16.63;15.83;;;;;;;-141.02;100.00;55844.97;5132437;28;20328;-69
2022/03/03 03:43:02;;;;;;;18.97;16.40;;;;;;;-141.02;100.00;55844.97;5132590;28;20246;-70
2022/03/03 03:45:29;;;;;;;18.33;17.33;;;;;;;-141.02;100.00;55844.97;5132558;28;20227;-70
2022/03/03 03:47:57;;;;;;;15.37;14.77;;;;;;;-141.02;100.00;55844.97;5132818;28;20239;-70
2022/03/03 03:50:24;;;;;;;15.60;14.90;;;;;;;-141.02;100.00;55844.97;5132697;28;20224;-71
2022/03/03 03:52:51;;;;;;;19.13;18.03;;;;;;;-141.02;100.00;55844.97;5132376;28;20231;-70
2022/03/03 03:55:18;;;;;;;19.40;18.50;;;;;;;-141.02;100.00;55844.97;5132710;28;20188;-70
2022/03/03 03:57:45;;;;;;;17.90;17.00;;;;;;;-141.02;100.00;55844.97;5132364;28;20650;-70
2022/03/03 04:00:15;;;;;;;17.60;16.70;;;;;;;-141.02;100.00;55844.97;5133031;28;20279;-69
2022/03/03 04:02:42;;;;;;;18.63;17.60;;;;;;;-141.02;100.00;55844.97;5132392;28;20196;-68
2022/03/03 04:05:11;;;;;;;22.40;20.33;;;;;;;-141.02;100.00;55844.97;5132330;27;20192;-70
2022/03/03 04:07:39;;;;;;;17.17;16.37;;;;;;;-141.02;100.00;55844.97;5134744;27;20199;-70
2022/03/03 04:10:08;;;;;;;19.07;17.90;;;;;;;-141.02;100.00;55844.97;5136188;27;20224;-70
2022/03/03 04:12:34;;;;;;;17.43;16.63;;;;;;;-141.02;100.00;55844.97;5136297;27;20257;-70
2022/03/03 04:15:01;;;;;;;18.27;16.90;;;;;;;-141.02;100.00;55844.97;5136196;27;20275;-70
2022/03/03 04:17:28;;;;;;;27.27;20.40;;;;;;;-141.02;100.00;55844.97;5136145;27;20192;-70
2022/03/03 04:19:56;;;;;;;24.30;22.20;;;;;;;-141.02;100.00;55844.97;5136649;27;20243;-69
2022/03/03 04:22:25;;;;;;;20.03;18.53;;;;;;;-141.02;100.00;55844.97;5135663;27;20722;-70
2022/03/03 04:24:52;;;;;;;17.73;16.60;;;;;;;-141.02;100.00;55844.97;5136044;27;20253;-70
2022/03/03 04:27:19;;;;;;;20.57;18.80;;;;;;;-141.02;100.00;55844.97;5135618;27;20193;-70
2022/03/03 04:29:46;;;;;;;15.23;14.53;;;;;;;-141.02;100.00;55844.97;5135805;27;20232;-70
2022/03/03 04:32:13;;;;;;;18.37;17.03;;;;;;;-141.02;100.00;55844.97;5135834;27;20228;-70
2022/03/03 04:34:40;;;;;;;15.13;14.53;;;;;;;-141.02;100.00;55844.97;5135455;27;20193;-70
2022/03/03 04:37:07;;;;;;;19.30;17.60;;;;;;;-141.02;100.00;55844.97;5135743;27;20197;-69
2022/03/03 04:39:36;;;;;;;17.80;16.77;;;;;;;-141.02;100.00;55844.97;5135390;27;20263;-70
2022/03/03 04:42:03;;;;;;;19.43;18.17;;;;;;;-141.02;100.00;55844.97;5136207;27;20288;-70
2022/03/03 04:44:30;;;;;;;16.97;16.33;;;;;;;-141.02;100.00;55844.97;5135608;27;20224;-70
2022/03/03 04:46:57;;;;;;;19.07;18.03;;;;;;;-141.02;100.00;55844.97;5135275;27;20724;-69
2022/03/03 04:49:24;;;;;;;19.73;18.60;;;;;;;-141.02;100.00;55844.97;5135198;27;20648;-70
2022/03/03 04:51:51;;;;;;;16.83;16.03;;;;;;;-141.02;100.00;55844.97;5135451;27;20271;-70
2022/03/03 04:54:19;;;;;;;16.80;16.00;;;;;;;-141.02;100.00;55844.97;5135145;27;20192;-69
2022/03/03 04:56:47;;;;;;;20.37;18.90;;;;;;;-141.02;100.00;55844.97;5135365;27;20197;-69
2022/03/03 04:59:14;;;;;;;19.97;18.27;;;;;;;-141.02;100.00;55844.97;5135037;27;20196;-70
2022/03/03 05:01:41;;;;;;;18.20;16.93;;;;;;;-141.02;100.00;55844.97;5135333;27;20271;-70
2022/03/03 05:04:08;;;;;;;26.83;20.67;;;;;;;-141.02;100.00;55844.97;5134916;27;20702;-69
2022/03/03 05:06:35;;;;;;;21.40;19.77;;;;;;;-141.02;100.00;55844.97;5134921;27;20235;-69
2022/03/03 05:09:02;;;;;;;19.03;17.70;;;;;;;-141.02;100.00;55844.97;5135028;27;20224;-69
2022/03/03 05:11:29;;;;;;;13.83;13.33;;;;;;;-141.02;100.00;55844.97;5135099;27;20192;-70
2022/03/03 05:13:57;;;;;;;21.13;18.53;;;;;;;-141.02;100.00;55844.97;5134752;27;20284;-70
2022/03/03 05:16:24;;;;;;;17.03;15.83;;;;;;;-141.02;100.00;55844.97;5134964;27;20184;-69
2022/03/03 05:18:51;;;;;;;17.30;16.03;;;;;;;-141.02;100.00;55844.97;5134498;27;20241;-70
2022/03/03 05:21:18;;;;;;;25.33;23.03;;;;;;;-141.02;100.00;55844.97;5134851;27;20196;-69
2022/03/03 05:23:45;;;;;;;15.67;15.07;;;;;;;-141.02;100.00;55844.97;5134500;27;20627;-69
2022/03/03 05:26:13;;;;;;;16.10;15.43;;;;;;;-141.02;100.00;55844.97;5134481;27;20697;-70
2022/03/03 05:28:40;;;;;;;19.53;18.30;;;;;;;-141.02;100.00;55844.97;5134445;27;20208;-70
2022/03/03 05:31:08;;;;;;;16.60;15.87;;;;;;;-141.02;100.00;55844.97;5134323;27;20323;-69
2022/03/03 05:33:36;;;;;;;19.53;18.17;;;;;;;-141.02;100.00;55844.97;5134589;27;20224;-69
2022/03/03 05:36:06;;;;;;;16.50;15.70;;;;;;;-141.02;100.00;55844.97;5134326;27;20712;-70
2022/03/03 05:38:35;;;;;;;16.37;15.67;;;;;;;-141.02;100.00;55844.97;5134263;27;20256;-69
2022/03/03 05:41:04;;;;;;;18.17;16.83;;;;;;;-141.02;100.00;55844.97;5134146;27;20257;-70
2022/03/03 05:43:32;;;;;;;16.73;15.83;;;;;;;-141.02;100.00;55844.97;5135294;27;20300;-70
2022/03/03 05:45:59;;;;;;;15.40;14.80;;;;;;;-141.02;100.00;55844.97;5134209;27;20743;-70
2022/03/03 05:48:28;;;;;;;18.90;17.87;;;;;;;-141.02;100.00;55844.97;5134111;27;20236;-70
2022/03/03 05:50:56;;;;;;;17.37;16.47;;;;;;;-141.02;100.00;55844.97;5134220;27;20223;-70
2022/03/03 05:53:23;;;;;;;16.77;16.00;;;;;;;-141.02;100.00;55844.97;5134315;27;20228;-70
2022/03/03 05:55:52;;;;;;;16.27;15.57;;;;;;;-141.02;100.00;55844.97;5134221;27;20230;-70
2022/03/03 05:58:21;;;;;;;17.50;16.60;;;;;;;-141.02;100.00;55844.97;5134239;27;20192;-69
2022/03/03 06:00:50;;;;;;;19.97;18.70;;;;;;;-141.02;100.00;55844.97;5134155;27;20276;-70
2022/03/03 06:03:19;;;;;;;21.17;19.37;;;;;;;-141.02;100.00;55844.97;5133815;27;20731;-69
2022/03/03 06:05:51;;;;;;;24.87;22.43;;;;;;;-141.02;100.00;55844.97;5133692;27;20188;-70
2022/03/03 06:08:20;;;;;;;17.70;16.80;;;;;;;-141.02;100.00;55844.97;5134004;27;20185;-69
2022/03/03 06:10:52;;;;;;;21.40;19.83;;;;;;;-141.02;100.00;55844.97;5134214;27;20220;-70
2022/03/03 06:13:23;;;;;;;21.03;17.20;;;;;;;-141.02;100.00;55844.97;5133597;27;20189;-70
2022/03/03 06:15:51;;;;;;;20.73;19.37;;;;;;;-141.02;100.00;55844.97;5134423;27;20192;-69
2022/03/03 06:18:21;;;;;;;20.10;18.80;;;;;;;-141.02;100.00;55844.97;5133477;27;20203;-70
2022/03/03 06:20:51;;;;;;;17.33;16.53;;;;;;;-141.02;100.00;55844.97;5133432;27;20208;-70
2022/03/03 06:23:18;;;;;;;19.03;17.97;;;;;;;-141.02;100.00;55844.97;5133718;27;20188;-70
2022/03/03 06:25:46;;;;;;;18.37;17.33;;;;;;;-141.02;100.00;55844.97;5133381;27;20188;-70
2022/03/03 06:28:13;;;;;;;18.10;17.30;;;;;;;-141.02;100.00;55844.97;5133290;27;20193;-70
2022/03/03 06:30:40;;;;;;;19.73;18.20;;;;;;;-141.02;100.00;55844.97;5132769;27;20682;-69
2022/03/03 06:33:07;;;;;;;17.43;16.53;;;;;;;-141.02;100.00;55844.97;5133281;27;20279;-69
2022/03/03 06:35:36;;;;;;;24.53;20.23;;;;;;;-141.02;100.00;55844.97;5133187;27;20680;-70
2022/03/03 06:38:08;;;;;;;18.97;17.77;;;;;;;-141.02;100.00;55844.97;5133223;27;20646;-69
2022/03/03 06:40:36;;;;;;;16.00;15.00;;;;;;;-141.02;100.00;55844.97;5132995;27;20664;-70
2022/03/03 06:43:03;;;;;;;19.00;17.87;;;;;;;-141.02;100.00;55844.97;5133517;27;20192;-70
2022/03/03 06:45:30;;;;;;;20.03;18.70;;;;;;;-141.02;100.00;55844.97;5133493;27;20245;-69
2022/03/03 06:47:59;;;;;;;22.33;20.47;;;;;;;-141.02;100.00;55844.97;5133316;27;20289;-70
2022/03/03 06:50:26;;;;;;;19.83;18.37;;;;;;;-141.02;100.00;55844.97;5133062;27;20224;-70
2022/03/03 06:52:54;;;;;;;16.33;15.63;;;;;;;-141.02;100.00;55844.97;5133344;27;20666;-70
2022/03/03 06:55:25;;;;;;;18.40;17.50;;;;;;;-141.02;100.00;55844.97;5133306;27;20543;-70
2022/03/03 06:57:55;;;;;;;16.40;15.70;;;;;;;-141.02;100.00;55844.97;5133239;28;20184;-71
2022/03/03 07:00:28;;;;;;;20.93;19.53;;;;;;;-141.02;100.00;55844.97;5133252;28;20245;-71
2022/03/03 07:02:55;;;;;;;17.23;16.43;;;;;;;-141.02;100.00;55844.97;5133219;28;20212;-70
2022/03/03 07:05:23;;;;;;;19.13;18.13;;;;;;;-141.02;100.00;55844.97;5132897;28;20188;-71
2022/03/03 07:07:52;;;;;;;18.83;17.93;;;;;;;-141.02;100.00;55844.97;5132822;28;20218;-71
2022/03/03 07:10:23;;;;;;;23.30;21.63;;;;;;;-141.02;100.00;55844.97;5132737;28;20219;-70
2022/03/03 07:12:54;;;;;;;20.70;19.30;;;;;;;-141.02;100.00;55844.97;5132923;27;20189;-71
2022/03/03 07:15:21;;;;;;;24.17;22.37;;;;;;;-141.02;100.00;55844.97;5133111;28;20188;-71
2022/03/03 07:17:51;;;;;;;23.73;22.10;;;;;;;-141.02;100.00;55844.97;5132808;28;20673;-71
2022/03/03 07:20:23;;;;;;;19.03;18.10;;;;;;;-141.02;100.00;55844.97;5132730;27;20203;-70
2022/03/03 07:23:02;;;;;;;20.40;19.40;;;;;;;-141.02;100.00;55844.97;5133109;27;20191;-71
2022/03/03 07:25:38;;;;;;;20.27;19.20;;;;;;;-141.02;100.00;55844.97;5132996;28;20184;-70
2022/03/03 07:28:08;;;;;;;19.90;18.90;;;;;;;-141.02;100.00;55844.97;5133024;28;20237;-71
2022/03/03 07:30:41;;;;;;;18.53;17.53;;;;;;;-141.02;100.00;55844.97;5132666;28;20212;-71
2022/03/03 07:33:13;;;;;;;18.03;17.13;;;;;;;-141.02;100.00;55844.97;5133023;28;20561;-71
2022/03/03 07:35:43;;;;;;;20.60;19.30;;;;;;;-141.02;100.00;55844.97;5132999;28;20195;-72
2022/03/03 07:38:15;;;;;;;19.13;18.03;;;;;;;-141.02;100.00;55844.97;5133032;27;20565;-71
2022/03/03 07:40:44;;;;;;;22.50;20.63;;;;;;;-141.02;100.00;55844.97;5133503;27;20303;-71
2022/03/03 07:43:13;;;;;;;18.97;17.87;;;;;;;-141.02;100.00;55844.97;5136870;27;20228;-71
2022/03/03 07:45:42;;;;;;;19.33;18.27;;;;;;;-141.02;100.00;55844.97;5136489;27;20583;-71
2022/03/03 07:48:09;;;;;;;23.77;21.87;;;;;;;-141.02;100.00;55844.97;5136800;27;20235;-72
2022/03/03 07:50:39;;;;;;;20.03;18.83;;;;;;;-141.02;100.00;55844.97;5136265;27;20220;-71
2022/03/03 07:53:10;;;;;;;20.73;19.23;;;;;;;-141.02;100.00;55844.97;5136686;27;20275;-71
2022/03/03 07:55:43;;;;;;;19.63;18.53;;;;;;;-141.02;100.00;55844.97;5136554;27;20246;-72
2022/03/03 07:58:15;;;;;;;19.53;18.33;;;;;;;-141.02;100.00;55844.97;5136583;27;20275;-72
2022/03/03 08:00:47;;;;;;;18.27;17.27;;;;;;;-141.02;100.00;55844.97;5136481;27;20617;-72
2022/03/03 08:03:17;;;;;;;22.50;20.63;;;;;;;-141.02;100.00;55844.97;5136519;27;20188;-71
2022/03/03 08:05:45;;;;;;;18.17;17.17;;;;;;;-141.02;100.00;55844.97;5136121;27;20266;-71
2022/03/03 08:08:14;;;;;;;19.40;18.13;;;;;;;-141.02;100.00;55844.97;5136328;27;20195;-72
2022/03/03 08:10:43;;;;;;;18.80;17.67;;;;;;;-141.02;100.00;55844.97;5136223;27;20224;-72
2022/03/03 08:13:13;;;;;;;17.90;16.97;;;;;;;-141.02;100.00;55844.97;5135860;27;20188;-72
2022/03/03 08:15:41;;;;;;;21.63;20.10;;;;;;;-141.02;100.00;55844.97;5136243;27;20253;-72
2022/03/03 08:18:09;;;;;;;19.63;18.50;;;;;;;-141.02;100.00;55844.97;5136105;27;20252;-73
2022/03/03 08:20:38;;;;;;;17.77;16.87;;;;;;;-141.02;100.00;55844.97;5136063;27;20192;-73
2022/03/03 08:23:06;;;;;;;19.07;17.87;;;;;;;-141.02;100.00;55844.97;5135754;27;20193;-73
2022/03/03 08:25:34;;;;;;;18.20;17.20;;;;;;;-141.02;100.00;55844.97;5136089;27;20222;-74
2022/03/03 08:28:03;;;;;;;20.63;19.17;;;;;;;-141.02;100.00;55844.97;5136001;27;20574;-73
2022/03/03 08:30:31;;;;;;;20.10;19.00;;;;;;;-141.02;100.00;55844.97;5135824;27;20300;-74
2022/03/03 08:33:08;;;;;;;18.13;17.13;;;;;;;-141.02;100.00;55844.97;5135982;27;20192;-72
2022/03/03 08:35:39;;;;;;;19.27;18.07;;;;;;;-141.02;100.00;55844.97;5135596;27;20244;-72
2022/03/03 08:38:08;;;;;;;21.07;19.53;;;;;;;-141.02;100.00;55844.97;5135861;27;20189;-73
2022/03/03 08:40:37;;;;;;;23.17;20.97;;;;;;;-141.02;100.00;55844.97;5135203;27;20280;-72
2022/03/03 08:43:06;;;;;;;20.93;19.63;;;;;;;-141.02;100.00;55844.97;5135724;27;20688;-72
2022/03/03 08:45:35;;;;;;;21.10;19.73;;;;;;;-141.02;100.00;55844.97;5135287;27;20238;-72
2022/03/03 08:48:07;;;;;;;21.23;19.83;;;;;;;-141.02;100.00;55844.97;5135308;27;20199;-72
2022/03/03 08:50:37;;;;;;;26.43;24.17;;;;;;;-141.02;100.00;55844.97;5135191;27;20213;-71
2022/03/03 08:53:06;;;;;;;21.60;20.40;;;;;;;-141.02;100.00;55844.97;5134373;27;20241;-73
2022/03/03 08:55:34;;;;;;;27.67;25.47;;;;;;;-141.02;100.00;55844.97;5135489;27;20273;-71
2022/03/03 08:58:02;;;;;;;23.40;21.67;;;;;;;-141.02;100.00;55844.97;5135444;27;20247;-71
2022/03/03 09:00:30;;;;;;;26.73;24.17;;;;;;;-141.02;100.00;55844.97;5135008;27;20200;-71
2022/03/03 09:02:59;;;;;;;22.73;21.10;;;;;;;-141.02;100.00;55844.97;5134942;27;20283;-71
2022/03/03 09:05:27;;;;;;;20.30;19.20;;;;;;;-141.02;100.00;55844.97;5135258;27;20196;-71
2022/03/03 09:07:54;;;;;;;28.57;25.97;;;;;;;-141.02;100.00;55844.97;5135157;27;20231;-72
2022/03/03 09:10:21;;;;;;;21.53;20.23;;;;;;;-141.02;100.00;55844.97;5135090;27;20188;-73
2022/03/03 09:12:49;;;;;;;22.83;20.90;;;;;;;-141.02;100.00;55844.97;5135173;27;20196;-72
2022/03/03 09:15:17;;;;;;;22.70;21.30;;;;;;;-141.02;100.00;55844.97;5135058;27;20662;-72
2022/03/03 09:17:44;;;;;;;21.60;20.37;;;;;;;-141.02;100.00;55844.97;5135074;27;20201;-72
2022/03/03 09:20:15;;;;;;;22.63;21.33;;;;;;;-141.02;100.00;55844.97;5135124;27;20246;-72
2022/03/03 09:22:42;;;;;;;20.27;19.17;;;;;;;-141.02;100.00;55844.97;5135489;27;20203;-74
2022/03/03 09:25:10;;;;;;;25.43;23.40;;;;;;;-141.02;100.00;55844.97;5134830;27;20278;-74
2022/03/03 09:27:37;;;;;;;22.37;21.07;;;;;;;-141.02;100.00;55844.97;5134865;27;20196;-73
2022/03/03 09:30:05;;;;;;;24.97;23.10;;;;;;;-141.02;100.00;55844.97;5134480;27;20225;-73
2022/03/03 09:32:32;;;;;;;27.30;25.10;;;;;;;-141.02;100.00;55844.97;5134308;27;20260;-73
2022/03/03 09:34:59;;;;;;;23.80;22.13;;;;;;;-141.02;100.00;55844.97;5134418;27;20201;-74
2022/03/03 09:37:29;;;;;;;24.90;23.10;;;;;;;-141.02;100.00;55844.97;5134560;27;20287;-73
2022/03/03 09:39:56;;;;;;;20.90;19.80;;;;;;;-141.02;100.00;55844.97;5134273;27;20228;-73
2022/03/03 09:42:23;;;;;;;23.93;22.23;;;;;;;-141.02;100.00;55844.97;5134196;27;20663;-74
2022/03/03 09:44:50;;;;;;;25.33;23.23;;;;;;;-141.02;100.00;55844.97;5134527;27;20256;-74
2022/03/03 09:47:17;;;;;;;22.87;21.37;;;;;;;-141.02;100.00;55844.97;5134491;27;20245;-72
2022/03/03 09:49:44;;;;;;;24.27;21.93;;;;;;;-141.02;100.00;55844.97;5134383;27;20250;-73
2022/03/03 09:52:13;;;;;;;23.27;21.43;;;;;;;-141.02;100.00;55844.97;5134358;27;20228;-72
2022/03/03 09:54:42;;;;;;;25.20;22.87;;;;;;;-141.02;100.00;55844.97;5134209;27;20197;-72
2022/03/03 09:57:09;;;;;;;27.20;24.70;;;;;;;-141.02;100.00;55844.97;5133914;27;20239;-74
2022/03/03 09:59:36;;;;;;;23.93;22.10;;;;;;;-141.02;100.00;55844.97;5133915;27;20208;-72
2022/03/03 10:02:05;;;;;;;25.77;23.70;;;;;;;-141.02;100.00;55844.97;5133876;27;20235;-73
2022/03/03 10:04:33;;;;;;;19.93;18.83;;;;;;;-141.02;100.00;55844.97;5133871;27;20201;-72
2022/03/03 10:07:05;;;;;;;22.40;21.07;;;;;;;-141.02;100.00;55844.97;5133724;27;20723;-72
2022/03/03 10:09:33;;;;;;;28.70;26.00;;;;;;;-141.02;100.00;55844.97;5134648;27;20192;-74
2022/03/03 10:12:06;;;;;;;19.30;18.30;;;;;;;-141.02;100.00;55844.97;5133948;27;20635;-73
2022/03/03 10:14:35;;;;;;;23.83;22.33;;;;;;;-141.02;100.00;55844.97;5133684;27;20224;-73
2022/03/03 10:17:03;;;;;;;23.53;21.93;;;;;;;-141.02;100.00;55844.97;5133920;27;20200;-74
2022/03/03 10:19:30;;;;;;;21.47;20.33;;;;;;;-141.02;100.00;55844.97;5133502;27;20652;-73
2022/03/03 10:21:57;;;;;;;21.73;20.30;;;;;;;-141.02;100.00;55844.97;5133455;27;20196;-73
2022/03/03 10:24:26;;;;;;;19.87;18.87;;;;;;;-141.02;100.00;55844.97;5133735;27;20662;-73
2022/03/03 10:26:58;;;;;;;21.13;20.03;;;;;;;-141.02;100.00;55844.97;5133720;27;20193;-73
2022/03/03 10:29:27;;;;;;;22.33;21.03;;;;;;;-141.02;100.00;55844.97;5133306;27;20192;-74
2022/03/03 10:31:57;;;;;;;21.00;19.90;;;;;;;-141.02;100.00;55844.97;5133660;27;20311;-74
2022/03/03 10:34:28;;;;;;;22.47;21.10;;;;;;;-141.02;100.00;55844.97;5133370;27;20253;-76
2022/03/03 10:37:00;;;;;;;20.70;19.60;;;;;;;-141.02;100.00;55844.97;5133601;27;20267;-74
2022/03/03 10:39:40;;;;;;;24.97;22.03;;;;;;;-141.02;100.00;55844.97;5133246;27;20231;-75
2022/03/03 10:42:14;;;;;;;21.00;19.80;;;;;;;-141.02;100.00;55844.97;5133514;27;20192;-75
2022/03/03 10:44:43;;;;;;;21.60;20.23;;;;;;;-141.02;100.00;55844.97;5133177;27;20237;-75
2022/03/03 10:47:13;;;;;;;22.77;21.03;;;;;;;-141.02;100.00;55844.97;5133526;27;20185;-76
2022/03/03 10:49:41;;;;;;;25.53;23.13;;;;;;;-141.02;100.00;55844.97;5133465;27;20239;-76
2022/03/03 10:52:16;;;;;;;22.17;20.80;;;;;;;-141.02;100.00;55844.97;5133002;27;20713;-75
2022/03/03 10:54:51;;;;;;;21.20;20.00;;;;;;;-141.02;100.00;55844.97;5133067;28;20189;-77
2022/03/03 10:57:40;;;;;;;20.43;19.23;;;;;;;-141.02;100.00;55844.97;5133085;27;20249;-75
2022/03/03 11:00:12;;;;;;;23.17;21.37;;;;;;;-141.02;100.00;55844.97;5127631;28;20279;-76